createdAt,value
2022-12-08T00:00:59.348Z,95
2022-12-08T00:03:30.285Z,93
2022-12-08T00:06:00.781Z,92
2022-12-08T00:08:31.528Z,85
2022-12-08T00:11:01.823Z,75
2022-12-08T00:13:33.000Z,77
2022-12-08T00:16:04.501Z,64
2022-12-08T00:18:34.807Z,67
2022-12-08T00:21:05.799Z,48
2022-12-08T00:23:36.367Z,52
2022-12-08T00:26:07.294Z,44
2022-12-08T00:28:37.798Z,48
2022-12-08T00:31:08.789Z,44
2022-12-08T00:33:42.329Z,44
2022-12-08T00:36:13.449Z,41
2022-12-08T00:38:44.128Z,40
2022-12-08T00:41:15.306Z,40
2022-12-08T00:43:45.661Z,41
2022-12-08T00:46:16.305Z,47
2022-12-08T00:48:47.706Z,54
2022-12-08T00:51:18.765Z,64
2022-12-08T00:53:49.702Z,65
2022-12-08T00:56:20.846Z,60
2022-12-08T00:58:52.325Z,74
2022-12-08T01:01:23.153Z,84
2022-12-08T01:03:54.034Z,80
2022-12-08T01:06:24.999Z,84
2022-12-08T01:08:57.210Z,74
2022-12-08T01:11:27.646Z,75
2022-12-08T01:13:58.542Z,72
2022-12-08T01:16:29.225Z,69
2022-12-08T01:18:59.651Z,69
2022-12-08T01:21:31.306Z,69
2022-12-08T01:24:02.182Z,68
2022-12-08T01:26:33.360Z,63
2022-12-08T01:29:03.976Z,61
2022-12-08T01:31:34.193Z,65
2022-12-08T01:34:04.481Z,67
2022-12-08T01:36:35.211Z,68
2022-12-08T01:39:06.240Z,68
2022-12-08T01:41:37.163Z,61
2022-12-08T01:44:07.323Z,62
2022-12-08T01:46:37.718Z,65
2022-12-08T01:49:08.652Z,68
2022-12-08T01:51:39.259Z,70
2022-12-08T01:54:10.436Z,69
2022-12-08T01:56:41.858Z,70
2022-12-08T01:59:13.549Z,65
2022-12-08T02:01:45.745Z,68
2022-12-08T02:04:16.588Z,74
2022-12-08T02:06:48.033Z,77
2022-12-08T02:09:19.562Z,78
2022-12-08T02:11:50.989Z,71
2022-12-08T02:14:22.638Z,76
2022-12-08T02:16:53.499Z,78
2022-12-08T02:19:31.981Z,69
2022-12-08T02:21:55.428Z,76
2022-12-08T02:24:26.447Z,72
2022-12-08T02:26:57.241Z,72
2022-12-08T02:29:28.383Z,74
2022-12-08T02:31:58.940Z,71
2022-12-08T02:34:30.705Z,67
2022-12-08T02:37:01.466Z,68
2022-12-08T02:39:32.433Z,73
2022-12-08T02:42:03.012Z,68
2022-12-08T02:44:34.336Z,72
2022-12-08T02:47:05.488Z,68
2022-12-08T02:49:35.951Z,70
2022-12-08T02:52:07.006Z,68
2022-12-08T02:54:38.065Z,67
2022-12-08T02:57:09.045Z,68
2022-12-08T02:59:39.519Z,67
2022-12-08T03:02:09.938Z,66
2022-12-08T03:04:40.432Z,66
2022-12-08T03:07:10.880Z,65
2022-12-08T03:09:42.591Z,64
2022-12-08T03:12:14.507Z,62
2022-12-08T03:14:45.489Z,60
2022-12-08T03:17:16.628Z,61
2022-12-08T03:19:48.135Z,66
2022-12-08T03:22:19.068Z,73
2022-12-08T03:24:49.806Z,66
2022-12-08T03:27:21.179Z,63
2022-12-08T03:29:52.660Z,58
2022-12-08T03:32:23.685Z,56
2022-12-08T03:34:55.119Z,52
2022-12-08T03:37:26.133Z,56
2022-12-08T03:39:57.432Z,60
2022-12-08T03:42:28.220Z,56
2022-12-08T03:44:59.149Z,52
2022-12-08T03:47:30.026Z,56
2022-12-08T03:50:00.735Z,50
2022-12-08T03:52:31.789Z,48
2022-12-08T03:55:02.752Z,44
2022-12-08T03:57:32.931Z,47
2022-12-08T04:00:03.603Z,44
2022-12-08T04:02:35.009Z,45
2022-12-08T04:05:06.862Z,44
2022-12-08T04:07:38.679Z,44
2022-12-08T04:10:09.750Z,46
2022-12-08T04:12:41.276Z,45
2022-12-08T04:15:12.694Z,44
2022-12-08T04:17:44.656Z,44
2022-12-08T04:20:15.129Z,44
2022-12-08T04:22:46.797Z,44
2022-12-08T04:25:18.514Z,45
2022-12-08T04:27:49.746Z,43
2022-12-08T04:30:20.798Z,40
2022-12-08T04:32:51.557Z,41
2022-12-08T04:35:22.500Z,41
2022-12-08T04:37:53.724Z,40
2022-12-08T04:40:24.683Z,43
2022-12-08T04:42:55.850Z,40
2022-12-08T04:45:26.713Z,40
2022-12-08T04:47:58.261Z,37
2022-12-08T04:50:29.849Z,36
2022-12-08T04:53:00.416Z,40
2022-12-08T04:55:31.281Z,36
2022-12-08T04:58:02.401Z,40
2022-12-08T05:00:34.302Z,40
2022-12-08T05:03:05.561Z,36
2022-12-08T05:05:36.158Z,40
2022-12-08T05:08:07.596Z,40
2022-12-08T05:10:38.337Z,40
2022-12-08T05:13:09.527Z,40
2022-12-08T05:15:39.712Z,42
2022-12-08T05:18:10.781Z,43
2022-12-08T05:20:40.508Z,38
2022-12-08T05:23:11.616Z,40
2022-12-08T05:25:42.545Z,36
2022-12-08T05:28:40.009Z,36
2022-12-08T05:30:44.844Z,39
2022-12-08T05:33:16.281Z,40
2022-12-08T05:35:46.838Z,38
2022-12-08T05:38:17.876Z,40
2022-12-08T05:40:49.866Z,41
2022-12-08T05:43:21.086Z,41
2022-12-08T05:45:51.789Z,40
2022-12-08T05:48:22.898Z,39
2022-12-08T05:50:53.505Z,40
2022-12-08T05:53:24.304Z,40
2022-12-08T05:55:55.907Z,40
2022-12-08T05:58:26.878Z,40
2022-12-08T06:00:58.524Z,40
2022-12-08T06:03:28.786Z,40
2022-12-08T06:05:59.670Z,40
2022-12-08T06:08:30.659Z,40
2022-12-08T06:11:01.836Z,44
2022-12-08T06:13:32.417Z,44
2022-12-08T06:16:04.065Z,44
2022-12-08T06:18:34.913Z,44
2022-12-08T06:21:05.458Z,46
2022-12-08T06:23:40.127Z,44
2022-12-08T06:26:10.785Z,44
2022-12-08T06:28:42.374Z,48
2022-12-08T06:31:13.489Z,45
2022-12-08T06:33:44.741Z,44
2022-12-08T06:36:16.535Z,44
2022-12-08T06:38:47.499Z,44
2022-12-08T06:41:17.856Z,48
2022-12-08T06:43:48.519Z,48
2022-12-08T06:46:19.035Z,48
2022-12-08T06:48:49.890Z,46
2022-12-08T06:51:21.196Z,46
2022-12-08T06:53:52.179Z,42
2022-12-08T06:56:23.767Z,47
2022-12-08T06:58:54.572Z,48
2022-12-08T07:01:25.894Z,48
2022-12-08T07:03:55.927Z,50
2022-12-08T07:06:26.406Z,45
2022-12-08T07:08:56.786Z,48
2022-12-08T07:11:26.990Z,44
2022-12-08T07:13:58.194Z,48
2022-12-08T07:16:28.792Z,46
2022-12-08T07:18:59.607Z,44
2022-12-08T07:21:30.491Z,48
2022-12-08T07:24:00.760Z,45
2022-12-08T07:26:31.256Z,43
2022-12-08T07:29:01.453Z,44
2022-12-08T07:31:32.524Z,43
2022-12-08T07:34:03.437Z,40
2022-12-08T07:36:33.764Z,42
2022-12-08T07:39:04.572Z,42
2022-12-08T07:41:35.372Z,44
2022-12-08T07:44:06.370Z,40
2022-12-08T07:46:37.381Z,43
2022-12-08T07:49:07.822Z,44
2022-12-08T07:51:38.584Z,46
2022-12-08T07:54:08.971Z,84
2022-12-08T07:56:39.708Z,53
2022-12-08T07:59:10.638Z,68
2022-12-08T08:01:40.823Z,64
2022-12-08T08:04:11.110Z,56
2022-12-08T08:06:42.599Z,53
2022-12-08T08:09:13.497Z,52
2022-12-08T08:11:55.974Z,48
2022-12-08T08:14:15.629Z,50
2022-12-08T08:16:47.293Z,55
2022-12-08T08:19:18.601Z,53
2022-12-08T08:21:49.704Z,49
2022-12-08T08:24:20.875Z,48
2022-12-08T08:26:51.094Z,46
2022-12-08T08:29:21.479Z,55
2022-12-08T08:31:52.672Z,36
2022-12-08T08:34:23.933Z,36
2022-12-08T08:36:52.562Z,32
2022-12-08T08:39:23.680Z,32
2022-12-08T08:41:53.734Z,32
2022-12-08T08:44:24.250Z,32
2022-12-08T08:46:53.355Z,40
2022-12-08T08:49:23.422Z,32
2022-12-08T08:51:53.855Z,32
2022-12-08T08:54:24.364Z,30
2022-12-08T08:56:55.623Z,32
2022-12-08T08:59:25.849Z,32
2022-12-08T09:01:56.524Z,32
2022-12-08T09:04:27.401Z,29
2022-12-08T09:06:59.231Z,33
2022-12-08T09:09:29.756Z,36
2022-12-08T09:12:00.986Z,32
2022-12-08T09:14:31.605Z,32
2022-12-08T09:17:02.518Z,32
2022-12-08T09:19:33.757Z,32
2022-12-08T09:22:04.346Z,32
2022-12-08T09:24:34.638Z,32
2022-12-08T09:27:05.209Z,32
2022-12-08T09:29:36.469Z,30
2022-12-08T09:32:06.362Z,30
2022-12-08T09:34:36.614Z,32
2022-12-08T09:37:07.390Z,32
2022-12-08T09:39:37.990Z,32
2022-12-08T09:42:08.772Z,32
2022-12-08T09:44:39.244Z,33
2022-12-08T09:47:09.452Z,36
2022-12-08T09:49:38.811Z,34
2022-12-08T09:52:13.780Z,36
2022-12-08T09:54:44.381Z,40
2022-12-08T09:57:15.589Z,34
2022-12-08T09:59:45.834Z,36
2022-12-08T10:02:16.500Z,40
2022-12-08T10:04:47.302Z,36
2022-12-08T10:07:17.905Z,32
2022-12-08T10:09:46.888Z,36
2022-12-08T10:12:17.604Z,36
2022-12-08T10:14:48.354Z,36
2022-12-08T10:17:18.895Z,38
2022-12-08T10:19:49.226Z,40
2022-12-08T10:22:20.328Z,36
2022-12-08T10:24:50.965Z,43
2022-12-08T10:27:21.313Z,40
2022-12-08T10:29:52.454Z,36
2022-12-08T10:32:23.539Z,40
2022-12-08T10:34:56.369Z,37
2022-12-08T10:37:23.959Z,36
2022-12-08T10:39:54.777Z,36
2022-12-08T10:42:25.705Z,40
2022-12-08T10:44:56.243Z,36
2022-12-08T10:47:27.253Z,35
2022-12-08T10:49:57.682Z,36
2022-12-08T10:52:28.775Z,36
2022-12-08T10:54:59.696Z,37
2022-12-08T10:57:30.344Z,36
2022-12-08T11:00:01.726Z,36
2022-12-08T11:02:32.438Z,36
2022-12-08T11:05:03.980Z,36
2022-12-08T11:07:34.471Z,36
2022-12-08T11:10:05.390Z,40
2022-12-08T11:12:35.506Z,42
2022-12-08T11:15:06.348Z,40
2022-12-08T11:17:36.912Z,36
2022-12-08T11:20:08.079Z,40
2022-12-08T11:22:38.701Z,36
2022-12-08T11:25:09.328Z,47
2022-12-08T11:27:40.727Z,48
2022-12-08T11:30:14.416Z,48
2022-12-08T11:32:42.094Z,54
2022-12-08T11:35:13.532Z,40
2022-12-08T11:37:44.240Z,52
2022-12-08T11:40:15.903Z,63
2022-12-08T11:42:47.157Z,43
2022-12-08T11:45:18.770Z,40
2022-12-08T11:47:54.213Z,40
2022-12-08T11:50:21.623Z,40
2022-12-08T11:52:52.412Z,36
2022-12-08T11:55:24.290Z,36
2022-12-08T11:57:54.932Z,36
2022-12-08T12:00:26.933Z,37
2022-12-08T12:02:58.534Z,39
2022-12-08T12:05:40.064Z,32
2022-12-08T12:08:00.774Z,32
2022-12-08T12:10:31.780Z,32
2022-12-08T12:13:02.934Z,33
2022-12-08T12:15:32.444Z,32
2022-12-08T12:18:02.938Z,32
2022-12-08T12:20:34.453Z,32
2022-12-08T12:23:05.612Z,35
2022-12-08T12:25:36.708Z,32
2022-12-08T12:28:07.415Z,32
2022-12-08T12:30:38.822Z,32
2022-12-08T12:33:09.276Z,32
2022-12-08T12:35:40.218Z,32
2022-12-08T12:38:11.394Z,32
2022-12-08T12:40:42.355Z,35
2022-12-08T12:43:13.234Z,36
2022-12-08T12:45:44.485Z,34
2022-12-08T12:48:15.350Z,36
2022-12-08T12:50:46.959Z,36
2022-12-08T12:53:17.478Z,36
2022-12-08T12:55:49.178Z,36
2022-12-08T12:58:20.068Z,44
2022-12-08T13:00:51.247Z,50
2022-12-08T13:03:21.820Z,60
2022-12-08T13:05:52.953Z,64
2022-12-08T13:08:23.606Z,87
2022-12-08T13:10:54.410Z,56
2022-12-08T13:13:25.391Z,57
2022-12-08T13:15:54.764Z,49
2022-12-08T13:18:25.986Z,41
2022-12-08T13:20:57.235Z,45
2022-12-08T13:23:27.770Z,45
2022-12-08T13:25:58.937Z,56
2022-12-08T13:28:29.584Z,52
2022-12-08T13:31:01.965Z,52
2022-12-08T13:33:32.787Z,52
2022-12-08T13:36:03.796Z,49
2022-12-08T13:38:35.159Z,48
2022-12-08T13:41:06.411Z,53
2022-12-08T13:43:47.645Z,56
2022-12-08T13:54:48.741Z,72
2022-12-08T13:58:45.021Z,112
2022-12-08T14:01:16.386Z,95
2022-12-08T14:04:04.573Z,66
2022-12-08T14:06:19.883Z,67
2022-12-08T14:09:00.257Z,68
2022-12-08T14:11:22.947Z,81
2022-12-08T14:13:54.233Z,104
2022-12-08T14:16:26.088Z,88
2022-12-08T14:18:55.901Z,89
2022-12-08T14:21:31.344Z,91
2022-12-08T14:24:01.939Z,74
2022-12-08T14:26:33.233Z,68
2022-12-08T14:29:05.147Z,60
2022-12-08T14:31:36.312Z,64
2022-12-08T14:34:07.537Z,63
2022-12-08T14:36:38.617Z,58
2022-12-08T14:39:09.682Z,58
2022-12-08T14:41:41.102Z,57
2022-12-08T14:44:12.643Z,48
2022-12-08T14:46:44.402Z,51
2022-12-08T14:49:14.537Z,51
2022-12-08T14:51:46.067Z,53
2022-12-08T14:54:17.505Z,53
2022-12-08T14:56:48.804Z,64
2022-12-08T14:59:20.047Z,85
2022-12-08T15:01:51.580Z,88
2022-12-08T15:04:23.323Z,81
2022-12-08T15:06:54.263Z,78
2022-12-08T15:09:25.386Z,77
2022-12-08T15:11:56.596Z,68
2022-12-08T15:14:27.530Z,56
2022-12-08T15:16:58.968Z,84
2022-12-08T15:19:32.536Z,60
2022-12-08T15:22:04.151Z,56
2022-12-08T15:24:42.369Z,56
2022-12-08T15:27:11.648Z,56
2022-12-08T15:29:42.609Z,55
2022-12-08T15:32:14.021Z,62
2022-12-08T15:34:45.063Z,52
2022-12-08T15:37:16.303Z,50
2022-12-08T15:39:47.865Z,52
2022-12-08T15:42:18.939Z,56
2022-12-08T15:44:50.102Z,52
2022-12-08T15:47:21.251Z,55
2022-12-08T15:49:52.365Z,55
2022-12-08T15:52:23.698Z,56
2022-12-08T15:54:55.123Z,49
2022-12-08T15:57:53.360Z,53
2022-12-08T15:59:57.634Z,53
2022-12-08T16:02:43.061Z,52
2022-12-08T16:07:31.979Z,66
2022-12-08T16:10:03.989Z,65
2022-12-08T16:13:13.788Z,72
2022-12-08T16:17:37.875Z,52
2022-12-08T16:20:09.506Z,48
2022-12-08T16:25:21.572Z,48
2022-12-08T16:30:19.179Z,44
2022-12-08T16:32:50.788Z,44
2022-12-08T16:35:22.358Z,46
2022-12-08T16:37:53.518Z,41
2022-12-08T16:40:24.708Z,44
2022-12-08T16:42:55.551Z,44
2022-12-08T16:45:26.433Z,47
2022-12-08T16:47:57.815Z,48
2022-12-08T16:50:29.929Z,53
2022-12-08T16:53:01.364Z,52
2022-12-08T16:55:32.407Z,54
2022-12-08T16:58:04.321Z,48
2022-12-08T17:00:35.674Z,56
2022-12-08T17:03:08.062Z,52
2022-12-08T17:05:39.164Z,50
2022-12-08T17:08:10.159Z,56
2022-12-08T17:10:40.929Z,60
2022-12-08T17:13:14.402Z,56
2022-12-08T17:15:45.587Z,63
2022-12-08T17:18:16.573Z,64
2022-12-08T17:20:47.773Z,61
2022-12-08T17:23:18.966Z,65
2022-12-08T17:25:50.570Z,77
2022-12-08T17:28:37.252Z,60
2022-12-08T17:30:53.125Z,68
2022-12-08T17:33:26.796Z,64
2022-12-08T17:35:55.609Z,64
2022-12-08T17:38:26.716Z,61
2022-12-08T17:40:58.807Z,65
2022-12-08T17:43:30.885Z,60
2022-12-08T17:46:02.345Z,67
2022-12-08T17:48:33.738Z,64
2022-12-08T17:51:05.140Z,68
2022-12-08T17:53:37.574Z,63
2022-12-08T17:56:07.949Z,64
2022-12-08T17:58:38.955Z,61
2022-12-08T18:01:10.137Z,64
2022-12-08T18:03:40.245Z,64
2022-12-08T18:06:11.245Z,65
2022-12-08T18:08:42.611Z,65
2022-12-08T18:11:14.984Z,76
2022-12-08T18:13:46.573Z,80
2022-12-08T18:16:18.023Z,96
2022-12-08T18:18:48.949Z,96
2022-12-08T18:21:23.465Z,121
2022-12-08T18:23:51.518Z,103
2022-12-08T18:26:23.020Z,92
2022-12-08T18:28:54.198Z,87
2022-12-08T18:31:25.130Z,80
2022-12-08T18:33:55.924Z,90
2022-12-08T18:36:27.297Z,90
2022-12-08T18:38:59.202Z,78
2022-12-08T18:41:30.203Z,84
2022-12-08T18:44:01.747Z,77
2022-12-08T18:46:33.415Z,100
2022-12-08T18:49:04.899Z,92
2022-12-08T18:51:36.294Z,84
2022-12-08T18:54:07.283Z,73
2022-12-08T18:56:38.461Z,73
2022-12-08T18:59:09.887Z,76
2022-12-08T19:01:42.557Z,68
2022-12-08T19:04:29.847Z,77
2022-12-08T19:06:45.385Z,76
2022-12-08T19:09:16.372Z,66
2022-12-08T19:11:46.570Z,66
2022-12-08T19:14:20.157Z,67
2022-12-08T19:16:48.604Z,62
2022-12-08T19:19:19.988Z,67
2022-12-08T19:21:51.451Z,62
2022-12-08T19:24:22.668Z,60
2022-12-08T19:26:53.887Z,65
2022-12-08T19:29:25.353Z,60
2022-12-08T19:31:54.903Z,60
2022-12-08T19:34:26.372Z,64
2022-12-08T19:36:55.853Z,64
2022-12-08T19:39:27.204Z,57
2022-12-08T19:42:00.044Z,65
2022-12-08T19:44:31.422Z,67
2022-12-08T19:47:02.523Z,72
2022-12-08T19:49:33.738Z,64
2022-12-08T19:52:08.093Z,65
2022-12-08T19:54:39.321Z,65
2022-12-08T19:57:10.584Z,66
2022-12-08T19:59:41.386Z,72
2022-12-08T20:02:12.537Z,68
2022-12-08T20:04:44.960Z,71
2022-12-08T20:07:16.037Z,72
2022-12-08T20:09:46.877Z,77
2022-12-08T20:12:18.007Z,80
2022-12-08T20:14:49.036Z,72
2022-12-08T20:17:21.617Z,76
2022-12-08T20:19:52.904Z,81
2022-12-08T20:22:27.236Z,79
2022-12-08T20:27:34.856Z,84
2022-12-08T20:30:06.123Z,87
2022-12-08T20:32:37.634Z,91
2022-12-08T20:35:08.955Z,92
2022-12-08T20:37:41.040Z,96
2022-12-08T20:40:12.171Z,104
2022-12-08T20:42:44.628Z,117
2022-12-08T20:45:15.556Z,120
2022-12-08T20:47:47.157Z,117
2022-12-08T20:50:18.485Z,124
2022-12-08T20:52:49.905Z,127
2022-12-08T20:55:21.072Z,128
2022-12-08T20:57:52.029Z,137
2022-12-08T21:00:23.787Z,151
2022-12-08T21:02:56.673Z,148
2022-12-08T21:05:29.613Z,125
2022-12-08T21:08:00.962Z,132
2022-12-08T21:10:32.239Z,135
2022-12-08T21:13:03.945Z,140
2022-12-08T21:15:35.254Z,145
2022-12-08T21:18:06.732Z,133
2022-12-08T21:20:36.446Z,116
2022-12-08T21:23:08.302Z,109
2022-12-08T21:25:39.199Z,119
2022-12-08T21:28:11.481Z,128
2022-12-08T21:30:43.474Z,120
2022-12-08T21:33:14.595Z,124
2022-12-08T21:35:45.918Z,124
2022-12-08T21:38:17.469Z,124
2022-12-08T21:40:48.246Z,124
2022-12-08T21:43:19.459Z,134
2022-12-08T21:45:50.539Z,134
2022-12-08T21:48:24.963Z,133
2022-12-08T21:50:56.244Z,140
2022-12-08T21:53:27.513Z,140
2022-12-08T21:55:59.115Z,125
2022-12-08T21:58:33.477Z,135
2022-12-08T22:01:04.642Z,124
2022-12-08T22:03:35.723Z,122
2022-12-08T22:06:06.408Z,117
2022-12-08T22:08:37.908Z,111
2022-12-08T22:11:09.099Z,103
2022-12-08T22:13:40.875Z,105
2022-12-08T22:16:13.557Z,98
2022-12-08T22:18:47.485Z,104
2022-12-08T22:21:18.824Z,112
2022-12-08T22:23:49.775Z,100
2022-12-08T22:26:20.767Z,104
2022-12-08T22:28:53.085Z,104
2022-12-08T22:31:27.407Z,103
2022-12-08T22:33:58.796Z,118
2022-12-08T22:36:30.102Z,116
2022-12-08T22:39:00.911Z,120
2022-12-08T22:41:32.001Z,115
2022-12-08T22:44:03.648Z,113
2022-12-08T22:46:36.978Z,106
2022-12-08T22:49:08.259Z,112
2022-12-08T22:51:38.200Z,104
2022-12-08T22:54:09.439Z,90
2022-12-08T22:56:40.541Z,92
2022-12-08T22:59:11.811Z,84
2022-12-08T23:01:43.474Z,100
2022-12-08T23:04:17.875Z,100
2022-12-08T23:06:46.435Z,88
2022-12-08T23:09:17.394Z,78
2022-12-08T23:11:48.561Z,76
2022-12-08T23:14:20.253Z,72
2022-12-08T23:16:52.841Z,64
2022-12-08T23:19:23.995Z,68
2022-12-08T23:21:55.367Z,72
2022-12-08T23:24:25.810Z,76
2022-12-08T23:26:56.673Z,75
2022-12-08T23:29:27.348Z,78
2022-12-08T23:31:56.634Z,101
2022-12-08T23:34:29.196Z,114
2022-12-08T23:37:00.859Z,115
2022-12-08T23:39:31.101Z,116
2022-12-08T23:42:02.059Z,116
2022-12-08T23:44:33.223Z,115
2022-12-08T23:47:05.021Z,110
2022-12-08T23:49:35.453Z,106
2022-12-08T23:52:06.371Z,109
2022-12-08T23:54:36.142Z,105
2022-12-08T23:57:07.341Z,108
2022-12-08T23:59:38.267Z,67
